createdAt,value
2018-08-09T00:00:22.915Z,100434.03
2018-08-09T00:02:51.328Z,100438.45
2018-08-09T00:05:19.734Z,100441.77
2018-08-09T00:07:48.031Z,100440.08
2018-08-09T00:10:16.436Z,100444.53
2018-08-09T00:12:45.012Z,100437.22
2018-08-09T00:15:13.434Z,100434.70
2018-08-09T00:17:42.202Z,100440.55
2018-08-09T00:20:10.579Z,100441.19
2018-08-09T00:22:38.911Z,100438.41
2018-08-09T00:25:07.778Z,100435.09
2018-08-09T00:27:36.245Z,100436.47
2018-08-09T00:30:05.643Z,100436.69
2018-08-09T00:32:34.339Z,100429.15
2018-08-09T00:35:02.739Z,100430.31
2018-08-09T00:37:31.093Z,100426.54
2018-08-09T00:39:59.665Z,100431.81
2018-08-09T00:42:27.999Z,100428.28
2018-08-09T00:44:56.588Z,100435.80
2018-08-09T00:47:24.932Z,100439.14
2018-08-09T00:49:53.308Z,100436.36
2018-08-09T00:52:21.694Z,100439.55
2018-08-09T00:54:50.092Z,100431.91
2018-08-09T00:57:18.747Z,100426.39
2018-08-09T00:59:47.157Z,100432.05
2018-08-09T01:02:15.796Z,100431.05
2018-08-09T01:04:44.231Z,100419.48
2018-08-09T01:07:12.582Z,100414.47
2018-08-09T01:09:40.968Z,100420.07
2018-08-09T01:12:09.385Z,100411.11
2018-08-09T01:14:37.748Z,100407.29
2018-08-09T01:17:06.176Z,100405.47
2018-08-09T01:19:34.515Z,100402.86
2018-08-09T01:22:02.965Z,100419.23
2018-08-09T01:24:31.342Z,100422.67
2018-08-09T01:26:59.714Z,100422.86
2018-08-09T01:29:28.121Z,100424.16
2018-08-09T01:31:56.457Z,100424.38
2018-08-09T01:34:24.875Z,100423.25
2018-08-09T01:36:53.258Z,100422.95
2018-08-09T01:39:21.702Z,100425.38
2018-08-09T01:42:01.195Z,100423.73
2018-08-09T01:44:29.549Z,100420.39
2018-08-09T01:46:58.168Z,100419.66
2018-08-09T01:49:26.586Z,100426.70
2018-08-09T01:51:54.975Z,100427.94
2018-08-09T01:54:23.302Z,100432.08
2018-08-09T01:56:51.724Z,100442.23
2018-08-09T01:59:20.093Z,100445.88
2018-08-09T02:01:48.452Z,100442.96
2018-08-09T02:04:16.792Z,100442.98
2018-08-09T02:06:45.147Z,100442.72
2018-08-09T02:09:17.649Z,100445.21
2018-08-09T02:11:46.031Z,100441.04
2018-08-09T02:14:14.411Z,100425.14
2018-08-09T02:16:42.765Z,100438.13
2018-08-09T02:19:11.125Z,100432.03
2018-08-09T02:22:09.931Z,100439.75
2018-08-09T02:24:38.241Z,100433.88
2018-08-09T02:27:06.671Z,100432.77
2018-08-09T02:29:35.042Z,100428.49
2018-08-09T02:32:03.392Z,100425.70
2018-08-09T02:34:31.763Z,100430.08
2018-08-09T02:39:24.048Z,100439.57
2018-08-09T02:41:52.424Z,100443.59
2018-08-09T02:44:20.978Z,100446.82
2018-08-09T02:46:49.340Z,100446.82
2018-08-09T02:49:17.684Z,100446.55
2018-08-09T02:51:46.246Z,100448.22
2018-08-09T02:54:14.929Z,100447.66
2018-08-09T02:56:43.333Z,100437.08
2018-08-09T02:59:11.743Z,100446.26
2018-08-09T03:01:40.073Z,100448.78
2018-08-09T03:04:08.459Z,100454.15
2018-08-09T03:06:36.883Z,100459.35
2018-08-09T03:09:08.653Z,100459.08
2018-08-09T03:11:36.983Z,100453.24
2018-08-09T03:14:05.370Z,100451.00
2018-08-09T03:16:33.809Z,100445.96
2018-08-09T03:19:02.206Z,100453.41
2018-08-09T03:21:30.586Z,100446.52
2018-08-09T03:23:58.940Z,100445.17
2018-08-09T03:26:27.291Z,100445.96
2018-08-09T03:28:55.616Z,100447.03
2018-08-09T03:31:23.941Z,100457.05
2018-08-09T03:33:52.700Z,100449.44
2018-08-09T03:36:21.039Z,100461.64
2018-08-09T03:38:49.373Z,100460.05
2018-08-09T03:41:17.870Z,100459.55
2018-08-09T03:43:46.589Z,100462.50
2018-08-09T03:46:15.000Z,100458.70
2018-08-09T03:48:43.410Z,100462.33
2018-08-09T03:51:11.742Z,100456.09
2018-08-09T03:53:40.194Z,100463.05
2018-08-09T03:56:08.566Z,100461.01
2018-08-09T03:58:36.950Z,100464.72
2018-08-09T04:01:05.420Z,100464.63
2018-08-09T04:03:33.830Z,100462.11
2018-08-09T04:06:02.245Z,100458.48
2018-08-09T04:08:30.630Z,100454.72
2018-08-09T04:10:59.036Z,100467.32
2018-08-09T04:13:27.745Z,100460.38
2018-08-09T04:15:56.134Z,100462.52
2018-08-09T04:18:24.520Z,100468.00
2018-08-09T04:20:52.883Z,100474.83
2018-08-09T04:23:21.264Z,100475.52
2018-08-09T04:25:49.666Z,100471.41
2018-08-09T04:28:18.763Z,100475.52
2018-08-09T04:30:47.158Z,100467.24
2018-08-09T04:33:15.562Z,100478.86
2018-08-09T04:35:43.960Z,100477.09
2018-08-09T04:38:12.295Z,100479.59
2018-08-09T04:40:40.672Z,100478.31
2018-08-09T04:43:08.999Z,100479.02
2018-08-09T04:45:37.347Z,100487.41
2018-08-09T04:48:05.809Z,100485.56
2018-08-09T04:50:34.378Z,100485.84
2018-08-09T04:53:02.709Z,100487.08
2018-08-09T04:55:31.032Z,100483.52
2018-08-09T04:57:59.465Z,100478.84
2018-08-09T05:00:27.794Z,100485.91
2018-08-09T05:02:56.196Z,100483.88
2018-08-09T05:05:24.513Z,100487.06
2018-08-09T05:07:52.839Z,100482.89
2018-08-09T05:10:21.271Z,100484.34
2018-08-09T05:12:49.584Z,100486.58
2018-08-09T05:15:17.963Z,100489.03
2018-08-09T05:17:46.395Z,100486.77
2018-08-09T05:20:14.766Z,100481.67
2018-08-09T05:22:43.152Z,100482.41
2018-08-09T05:25:11.594Z,100484.33
2018-08-09T05:27:39.965Z,100483.44
2018-08-09T05:30:08.416Z,100482.38
2018-08-09T05:32:36.818Z,100479.97
2018-08-09T05:35:05.266Z,100488.80
2018-08-09T05:37:33.813Z,100490.02
2018-08-09T05:40:02.210Z,100490.49
2018-08-09T05:42:30.583Z,100488.48
2018-08-09T05:44:58.952Z,100486.51
2018-08-09T05:47:27.322Z,100480.02
2018-08-09T05:49:55.669Z,100484.48
2018-08-09T05:52:24.074Z,100481.69
2018-08-09T05:54:52.471Z,100488.84
2018-08-09T05:57:20.845Z,100496.04
2018-08-09T05:59:49.190Z,100492.67
2018-08-09T06:02:17.536Z,100494.50
2018-08-09T06:04:45.947Z,100489.30
2018-08-09T06:07:14.398Z,100477.75
2018-08-09T06:09:42.744Z,100492.16
2018-08-09T06:12:11.182Z,100495.97
2018-08-09T06:14:39.537Z,100495.79
2018-08-09T06:17:07.939Z,100508.36
2018-08-09T06:19:36.324Z,100509.67
2018-08-09T06:22:04.847Z,100506.39
2018-08-09T06:24:33.281Z,100498.04
2018-08-09T06:27:01.748Z,100502.27
2018-08-09T06:29:30.175Z,100498.68
2018-08-09T06:31:58.498Z,100501.45
2018-08-09T06:34:26.922Z,100488.86
2018-08-09T06:36:55.261Z,100492.38
2018-08-09T06:39:23.642Z,100484.20
2018-08-09T06:41:52.028Z,100476.48
2018-08-09T06:44:20.438Z,100480.38
2018-08-09T06:46:48.808Z,100480.20
2018-08-09T06:49:17.150Z,100471.72
2018-08-09T06:51:45.478Z,100471.83
2018-08-09T06:54:13.900Z,100472.69
2018-08-09T06:56:42.269Z,100470.13
2018-08-09T06:59:10.612Z,100469.88
2018-08-09T07:01:38.967Z,100470.69
2018-08-09T07:04:07.613Z,100460.52
2018-08-09T07:06:35.990Z,100465.56
2018-08-09T07:09:07.322Z,100452.93
2018-08-09T07:11:35.736Z,100456.38
2018-08-09T07:14:04.238Z,100456.80
2018-08-09T07:16:32.711Z,100457.48
2018-08-09T07:19:02.082Z,100453.30
2018-08-09T07:21:32.018Z,100450.73
2018-08-09T07:24:00.401Z,100443.58
2018-08-09T07:26:28.804Z,100441.80
2018-08-09T07:28:57.135Z,100433.17
2018-08-09T07:31:25.542Z,100425.93
2018-08-09T07:33:54.042Z,100414.55
2018-08-09T07:36:22.352Z,100422.01
2018-08-09T07:38:50.703Z,100431.39
2018-08-09T07:41:19.108Z,100429.49
2018-08-09T07:43:47.532Z,100431.57
2018-08-09T07:46:18.751Z,100446.72
2018-08-09T07:48:47.119Z,100432.80
2018-08-09T07:51:15.509Z,100432.27
2018-08-09T07:53:43.911Z,100426.02
2018-08-09T07:56:12.397Z,100430.75
2018-08-09T07:58:40.844Z,100432.99
2018-08-09T08:01:09.840Z,100434.84
2018-08-09T08:03:38.153Z,100427.08
2018-08-09T08:06:06.557Z,100424.94
2018-08-09T08:08:34.923Z,100416.98
2018-08-09T08:11:04.231Z,100412.57
2018-08-09T08:13:34.416Z,100410.64
2018-08-09T08:16:02.765Z,100410.66
2018-08-09T08:18:31.209Z,100403.14
2018-08-09T08:20:59.676Z,100405.45
2018-08-09T08:23:28.053Z,100401.94
2018-08-09T08:25:56.439Z,100392.36
2018-08-09T08:28:24.918Z,100393.75
2018-08-09T08:30:53.279Z,100385.36
2018-08-09T08:33:21.670Z,100388.45
2018-08-09T08:35:50.086Z,100385.63
2018-08-09T08:38:18.815Z,100382.98
2018-08-09T08:40:47.226Z,100381.05
2018-08-09T08:43:15.589Z,100382.00
2018-08-09T08:45:43.948Z,100379.39
2018-08-09T08:48:12.380Z,100373.14
2018-08-09T08:50:40.796Z,100374.20
2018-08-09T08:53:09.602Z,100371.20
2018-08-09T08:55:38.534Z,100368.44
2018-08-09T08:58:06.894Z,100371.16
2018-08-09T09:00:35.342Z,100371.67
2018-08-09T09:03:03.738Z,100357.17
2018-08-09T09:05:32.056Z,100353.27
2018-08-09T09:08:00.446Z,100343.20
2018-08-09T09:10:29.160Z,100340.07
2018-08-09T09:12:57.675Z,100341.38
2018-08-09T09:15:26.054Z,100342.00
2018-08-09T09:17:54.425Z,100340.02
2018-08-09T09:20:22.823Z,100335.00
2018-08-09T09:22:51.245Z,100333.68
2018-08-09T09:25:19.866Z,100335.71
2018-08-09T09:27:48.254Z,100326.94
2018-08-09T09:30:18.346Z,100330.11
2018-08-09T09:32:46.930Z,100322.95
2018-08-09T09:35:15.357Z,100325.02
2018-08-09T09:37:44.023Z,100318.19
2018-08-09T09:40:12.507Z,100314.61
2018-08-09T09:42:40.849Z,100308.52
2018-08-09T09:45:10.203Z,100313.90
2018-08-09T09:47:38.644Z,100311.97
2018-08-09T09:50:08.556Z,100306.22
2018-08-09T09:52:36.963Z,100295.58
2018-08-09T09:55:05.745Z,100297.31
2018-08-09T09:57:34.099Z,100303.94
2018-08-09T10:00:03.041Z,100307.54
2018-08-09T10:02:31.431Z,100304.66
2018-08-09T10:04:59.970Z,100307.55
2018-08-09T10:07:28.298Z,100302.41
2018-08-09T10:09:56.664Z,100290.81
2018-08-09T10:12:25.074Z,100289.71
2018-08-09T10:14:53.479Z,100284.27
2018-08-09T10:17:21.830Z,100288.98
2018-08-09T10:19:50.210Z,100279.55
2018-08-09T10:22:18.971Z,100266.59
2018-08-09T10:24:47.348Z,100258.59
2018-08-09T10:27:15.756Z,100251.82
2018-08-09T10:29:44.112Z,100248.58
2018-08-09T10:32:12.439Z,100248.87
2018-08-09T10:34:40.850Z,100237.69
2018-08-09T10:37:09.228Z,100235.84
2018-08-09T10:39:37.628Z,100228.84
2018-08-09T10:42:05.971Z,100213.88
2018-08-09T10:44:34.304Z,100209.74
2018-08-09T10:47:02.653Z,100210.91
2018-08-09T10:49:31.068Z,100216.64
2018-08-09T10:51:59.483Z,100215.02
2018-08-09T10:54:27.809Z,100211.30
2018-08-09T10:56:56.540Z,100212.44
2018-08-09T10:59:24.904Z,100191.08
2018-08-09T11:01:53.315Z,100196.55
2018-08-09T11:04:21.685Z,100205.45
2018-08-09T11:06:50.040Z,100193.13
2018-08-09T11:09:18.432Z,100189.94
2018-08-09T11:11:46.802Z,100196.98
2018-08-09T11:14:15.256Z,100187.46
2018-08-09T11:16:43.717Z,100184.41
2018-08-09T11:19:12.194Z,100189.86
2018-08-09T11:21:40.616Z,100176.50
2018-08-09T11:24:09.003Z,100175.46
2018-08-09T11:26:37.523Z,100165.25
2018-08-09T11:29:05.988Z,100168.86
2018-08-09T11:31:34.434Z,100159.98
2018-08-09T11:34:03.123Z,100153.31
2018-08-09T11:36:31.538Z,100144.51
2018-08-09T11:38:59.935Z,100135.00
2018-08-09T11:41:28.338Z,100130.78
2018-08-09T11:43:56.762Z,100129.26
2018-08-09T11:46:25.241Z,100117.44
2018-08-09T11:48:53.585Z,100105.39
2018-08-09T11:51:21.978Z,100111.84
2018-08-09T11:53:50.455Z,100105.09
2018-08-09T11:56:18.876Z,100095.69
2018-08-09T11:58:47.300Z,100096.69
2018-08-09T12:01:15.694Z,100090.39
2018-08-09T12:03:44.084Z,100094.73
2018-08-09T12:06:12.434Z,100091.77
2018-08-09T12:08:40.802Z,100084.88
2018-08-09T12:11:09.291Z,100068.72
2018-08-09T12:13:37.889Z,100063.13
2018-08-09T12:16:06.222Z,100065.08
2018-08-09T12:18:34.635Z,100057.16
2018-08-09T12:21:03.150Z,100044.61
2018-08-09T12:23:31.557Z,100048.93
2018-08-09T12:26:00.004Z,100038.83
2018-08-09T12:28:28.486Z,100032.35
2018-08-09T12:30:56.843Z,100022.11
2018-08-09T12:33:25.788Z,100009.84
2018-08-09T12:35:54.167Z,99999.39
2018-08-09T12:38:22.458Z,99993.55
2018-08-09T12:40:51.207Z,99982.94
2018-08-09T12:43:19.652Z,99990.41
2018-08-09T12:45:48.021Z,99981.59
2018-08-09T12:48:16.433Z,99968.05
2018-08-09T12:50:45.088Z,99972.38
2018-08-09T12:53:13.522Z,99979.17
2018-08-09T12:55:41.958Z,99968.48
2018-08-09T12:58:10.389Z,99972.23
2018-08-09T13:00:38.809Z,99982.52
2018-08-09T13:03:07.178Z,99962.44
2018-08-09T13:05:35.559Z,99970.56
2018-08-09T13:08:03.956Z,99965.16
2018-08-09T13:10:32.377Z,99964.16
2018-08-09T13:13:00.820Z,99948.97
2018-08-09T13:15:29.172Z,99951.89
2018-08-09T13:17:57.637Z,99950.60
2018-08-09T13:20:26.144Z,99936.22
2018-08-09T13:22:54.537Z,99935.34
2018-08-09T13:25:22.930Z,99921.77
2018-08-09T13:27:51.404Z,99919.41
2018-08-09T13:30:19.824Z,99908.77
2018-08-09T13:32:48.348Z,99915.05
2018-08-09T13:35:16.754Z,99902.20
2018-08-09T13:37:45.205Z,99893.91
2018-08-09T13:40:13.582Z,99890.21
2018-08-09T13:42:42.100Z,99882.86
2018-08-09T13:45:21.258Z,99878.59
2018-08-09T13:47:49.675Z,99863.45
2018-08-09T13:50:18.088Z,99870.08
2018-08-09T13:52:46.489Z,99851.14
2018-08-09T13:55:15.614Z,99846.08
2018-08-09T13:57:44.381Z,99853.47
2018-08-09T14:00:13.721Z,99827.80
2018-08-09T14:02:43.688Z,99832.17
2018-08-09T14:05:12.102Z,99816.10
2018-08-09T14:07:42.131Z,99813.03
2018-08-09T14:10:11.572Z,99802.82
2018-08-09T14:12:40.521Z,99799.47
2018-08-09T14:15:09.866Z,99804.95
2018-08-09T14:17:38.831Z,99789.73
2018-08-09T14:20:08.964Z,99791.36
2018-08-09T14:22:37.375Z,99784.67
2018-08-09T14:25:06.258Z,99767.70
2018-08-09T14:27:34.711Z,99764.23
2018-08-09T14:30:03.117Z,99761.63
2018-08-09T14:32:31.549Z,99742.73
2018-08-09T14:34:59.926Z,99743.86
2018-08-09T14:37:28.334Z,99738.48
2018-08-09T14:39:58.377Z,99744.66
2018-08-09T14:42:26.984Z,99738.70
2018-08-09T14:44:55.539Z,99731.55
2018-08-09T14:47:23.981Z,99737.45
2018-08-09T14:49:52.421Z,99733.28
2018-08-09T14:52:20.879Z,99721.70
2018-08-09T14:54:49.345Z,99712.16
2018-08-09T14:57:17.792Z,99711.41
2018-08-09T14:59:46.198Z,99705.17
2018-08-09T15:02:14.705Z,99705.48
2018-08-09T15:04:43.245Z,99702.59
2018-08-09T15:07:11.626Z,99698.42
2018-08-09T15:09:40.075Z,99705.69
2018-08-09T15:12:08.607Z,99705.92
2018-08-09T15:14:37.081Z,99706.98
2018-08-09T15:17:05.622Z,99732.36
2018-08-09T15:19:34.244Z,99701.27
2018-08-09T15:22:02.645Z,99693.67
2018-08-09T15:24:31.317Z,99683.57
2018-08-09T15:26:59.716Z,99674.47
2018-08-09T15:29:28.105Z,99668.66
2018-08-09T15:31:56.527Z,99668.98
2018-08-09T15:34:24.968Z,99677.97
2018-08-09T15:36:53.437Z,99678.31
2018-08-09T15:39:21.824Z,99676.83
2018-08-09T15:41:50.223Z,99675.50
2018-08-09T15:44:18.552Z,99678.12
2018-08-09T15:46:46.988Z,99673.84
2018-08-09T15:49:15.438Z,99676.87
2018-08-09T15:51:43.895Z,99675.84
2018-08-09T15:54:12.223Z,99674.80
2018-08-09T15:56:40.595Z,99688.30
2018-08-09T15:59:08.968Z,99699.64
2018-08-09T16:01:37.478Z,99707.47
2018-08-09T16:04:05.850Z,99684.12
2018-08-09T16:06:34.260Z,99679.27
2018-08-09T16:09:02.713Z,99681.11
2018-08-09T16:11:31.332Z,99674.55
2018-08-09T16:14:07.778Z,99683.33
2018-08-09T16:16:37.354Z,99698.08
2018-08-09T16:19:06.511Z,99739.90
2018-08-09T16:21:34.839Z,99749.27
2018-08-09T16:24:03.295Z,99793.45
2018-08-09T16:26:31.839Z,99842.24
2018-08-09T16:29:00.342Z,99893.85
2018-08-09T16:31:29.028Z,99866.51
2018-08-09T16:33:57.640Z,99840.92
2018-08-09T16:36:26.176Z,99849.63
2018-08-09T16:38:54.958Z,99855.12
2018-08-09T16:41:26.516Z,99865.22
2018-08-09T16:43:56.189Z,99863.63
2018-08-09T16:46:24.828Z,99877.27
2018-08-09T16:48:53.567Z,99912.83
2018-08-09T16:51:22.096Z,99915.18
2018-08-09T16:53:51.981Z,99925.20
2018-08-09T16:56:23.608Z,99952.94
2018-08-09T16:58:52.114Z,99956.02
2018-08-09T17:01:21.870Z,99954.55
2018-08-09T17:03:50.362Z,99922.78
2018-08-09T17:06:18.884Z,99933.70
2018-08-09T17:08:47.701Z,99962.34
2018-08-09T17:11:16.491Z,99952.84
2018-08-09T17:13:45.312Z,99939.48
2018-08-09T17:16:14.144Z,99970.99
2018-08-09T17:18:42.643Z,99986.66
2018-08-09T17:21:11.202Z,99997.06
2018-08-09T17:23:39.806Z,99982.07
2018-08-09T17:26:10.311Z,99957.13
2018-08-09T17:28:39.783Z,99938.94
2018-08-09T17:31:09.060Z,99907.59
2018-08-09T17:33:38.052Z,99893.27
2018-08-09T17:36:06.815Z,99883.33
2018-08-09T17:38:35.964Z,99869.82
2018-08-09T17:41:04.757Z,99846.41
2018-08-09T17:43:33.230Z,99830.88
2018-08-09T17:46:02.193Z,99822.44
2018-08-09T17:48:32.473Z,99821.97
2018-08-09T17:51:01.447Z,99815.91
2018-08-09T17:53:31.168Z,99815.43
2018-08-09T17:56:00.598Z,99798.13
2018-08-09T17:58:29.961Z,99779.53
2018-08-09T18:00:59.069Z,99794.69
2018-08-09T18:03:28.967Z,99795.66
2018-08-09T18:05:58.507Z,99802.62
2018-08-09T18:08:27.594Z,99787.81
2018-08-09T18:10:56.563Z,99769.34
2018-08-09T18:13:25.462Z,99771.19
2018-08-09T18:15:58.546Z,99766.73
2018-08-09T18:18:27.239Z,99761.16
2018-08-09T18:20:55.865Z,99769.92
2018-08-09T18:23:25.351Z,99768.40
2018-08-09T18:25:54.545Z,99770.41
2018-08-09T18:28:24.190Z,99760.58
2018-08-09T18:30:53.634Z,99781.86
2018-08-09T18:33:23.271Z,99780.31
2018-08-09T18:35:53.195Z,99778.30
2018-08-09T18:38:22.788Z,99777.95
2018-08-09T18:40:52.115Z,99774.60
2018-08-09T18:43:21.311Z,99783.34
2018-08-09T18:45:50.994Z,99784.89
2018-08-09T18:48:20.492Z,99788.04
2018-08-09T18:50:49.753Z,99785.67
2018-08-09T18:53:19.357Z,99779.44
2018-08-09T18:55:50.528Z,99787.59
2018-08-09T18:58:19.763Z,99786.88
2018-08-09T19:00:48.935Z,99795.30
2018-08-09T19:03:18.250Z,99795.78
2018-08-09T19:05:46.634Z,99795.75
2018-08-09T19:08:15.932Z,99801.81
2018-08-09T19:10:45.359Z,99817.50
2018-08-09T19:13:15.179Z,99822.61
2018-08-09T19:15:44.501Z,99842.53
2018-08-09T19:18:13.579Z,99853.00
2018-08-09T19:20:42.909Z,99861.07
2018-08-09T19:23:13.366Z,99868.50
2018-08-09T19:25:42.541Z,99864.83
2018-08-09T19:28:11.816Z,99852.77
2018-08-09T19:30:41.288Z,99856.00
2018-08-09T19:33:10.548Z,99849.30
2018-08-09T19:35:39.843Z,99856.53
2018-08-09T19:38:09.191Z,99858.17
2018-08-09T19:40:38.599Z,99849.15
2018-08-09T19:43:07.932Z,99855.70
2018-08-09T19:45:37.219Z,99857.88
2018-08-09T19:48:06.538Z,99838.21
2018-08-09T19:50:35.867Z,99850.30
2018-08-09T19:53:05.743Z,99850.07
2018-08-09T19:55:36.045Z,99855.27
2018-08-09T19:58:06.938Z,99851.39
2018-08-09T20:00:38.206Z,99866.20
2018-08-09T20:03:07.564Z,99871.58
2018-08-09T20:05:36.736Z,99869.45
2018-08-09T20:08:07.679Z,99876.05
2018-08-09T20:10:37.975Z,99881.88
2018-08-09T20:13:07.585Z,99889.89
2018-08-09T20:15:39.892Z,99878.41
2018-08-09T20:18:09.120Z,99889.84
2018-08-09T20:20:39.383Z,99899.63
2018-08-09T20:23:08.734Z,99883.53
2018-08-09T20:25:38.024Z,99884.11
2018-08-09T20:28:07.379Z,99894.17
2018-08-09T20:30:36.534Z,99896.06
2018-08-09T20:33:06.586Z,99896.20
2018-08-09T20:35:35.863Z,99897.69
2018-08-09T20:38:05.958Z,99893.75
2018-08-09T20:40:35.285Z,99902.00
2018-08-09T20:43:10.723Z,99912.31
2018-08-09T20:45:39.782Z,99918.97
2018-08-09T20:48:09.012Z,99933.28
2018-08-09T20:50:38.252Z,99934.23
2018-08-09T20:53:08.068Z,99942.14
2018-08-09T20:55:37.094Z,99937.28
2018-08-09T20:58:06.392Z,99943.53
2018-08-09T21:00:36.517Z,99952.07
2018-08-09T21:03:05.874Z,99942.39
2018-08-09T21:05:37.065Z,99958.80
2018-08-09T21:08:05.806Z,99947.13
2018-08-09T21:10:35.343Z,99955.00
2018-08-09T21:13:04.074Z,99953.59
2018-08-09T21:15:33.160Z,99948.74
2018-08-09T21:18:02.165Z,99955.05
2018-08-09T21:20:31.123Z,99953.95
2018-08-09T21:22:59.642Z,99960.36
2018-08-09T21:25:28.897Z,99944.11
2018-08-09T21:27:59.127Z,99959.56
2018-08-09T21:30:28.449Z,99962.06
2018-08-09T21:32:57.469Z,99968.66
2018-08-09T21:35:27.036Z,99966.54
2018-08-09T21:37:55.823Z,99971.08
2018-08-09T21:40:24.843Z,99967.75
2018-08-09T21:42:54.143Z,99979.33
2018-08-09T21:45:23.485Z,99981.48
2018-08-09T21:47:52.665Z,99998.75
2018-08-09T21:50:22.973Z,100007.86
2018-08-09T21:52:52.336Z,100001.73
2018-08-09T21:55:21.656Z,100017.80
2018-08-09T21:57:50.604Z,100020.56
2018-08-09T22:00:49.260Z,100024.69
2018-08-09T22:03:20.539Z,100037.86
2018-08-09T22:05:54.930Z,100037.48
2018-08-09T22:08:30.015Z,100033.41
2018-08-09T22:13:07.616Z,100044.69
2018-08-09T22:15:41.219Z,100048.84
2018-08-09T22:20:17.907Z,100055.60
2018-08-09T22:22:46.743Z,100063.51
2018-08-09T22:25:15.400Z,100065.19
2018-08-09T22:27:44.598Z,100064.55
2018-08-09T22:30:15.024Z,100066.11
2018-08-09T22:32:44.008Z,100064.23
2018-08-09T22:35:12.658Z,100069.98
2018-08-09T22:37:41.815Z,100075.19
2018-08-09T22:40:11.317Z,100082.62
2018-08-09T22:42:40.369Z,100072.43
2018-08-09T22:45:09.873Z,100081.37
2018-08-09T22:47:39.001Z,100090.39
2018-08-09T22:50:08.328Z,100098.94
2018-08-09T22:52:37.581Z,100093.44
2018-08-09T22:55:06.047Z,100098.81
2018-08-09T22:57:35.115Z,100098.23
2018-08-09T23:00:06.486Z,100088.25
2018-08-09T23:02:35.544Z,100098.22
2018-08-09T23:05:04.229Z,100107.58
2018-08-09T23:07:32.640Z,100099.61
2018-08-09T23:10:01.090Z,100101.08
2018-08-09T23:12:29.467Z,100099.13
2018-08-09T23:14:57.852Z,100097.99
2018-08-09T23:17:26.199Z,100097.70
2018-08-09T23:19:54.604Z,100096.31
2018-08-09T23:22:22.920Z,100100.22
2018-08-09T23:24:51.295Z,100099.77
2018-08-09T23:27:19.700Z,100115.48
2018-08-09T23:29:48.141Z,100124.44
2018-08-09T23:32:16.526Z,100121.42
2018-08-09T23:34:45.908Z,100138.45
2018-08-09T23:37:14.392Z,100140.22
2018-08-09T23:39:42.765Z,100137.71
2018-08-09T23:42:11.228Z,100137.62
2018-08-09T23:44:39.612Z,100144.03
2018-08-09T23:47:08.170Z,100141.52
2018-08-09T23:49:36.696Z,100146.78
2018-08-09T23:52:05.157Z,100138.59
2018-08-09T23:54:33.512Z,100141.77
2018-08-09T23:57:01.932Z,100146.05
2018-08-09T23:59:30.249Z,100156.86
